createdAt,value
2023-05-24T00:01:14.320Z,2.67
2023-05-24T00:03:42.399Z,3.13
2023-05-24T00:06:11.152Z,3.03
2023-05-24T00:08:39.093Z,3.13
2023-05-24T00:11:07.144Z,2.97
2023-05-24T00:13:36.425Z,3.17
2023-05-24T00:16:05.042Z,3.47
2023-05-24T00:18:33.075Z,2.90
2023-05-24T00:21:01.062Z,3.00
2023-05-24T00:23:28.989Z,2.97
2023-05-24T00:25:56.882Z,3.33
2023-05-24T00:28:24.810Z,3.20
2023-05-24T00:30:54.738Z,3.07
2023-05-24T00:33:23.358Z,2.70
2023-05-24T00:35:54.413Z,2.70
2023-05-24T00:38:22.389Z,2.90
2023-05-24T00:40:50.327Z,3.10
2023-05-24T00:43:19.090Z,2.93
2023-05-24T00:45:47.082Z,2.57
2023-05-24T00:48:16.394Z,2.57
2023-05-24T00:50:44.484Z,2.97
2023-05-24T00:53:12.514Z,2.63
2023-05-24T00:55:41.103Z,2.53
2023-05-24T00:58:09.048Z,2.70
2023-05-24T01:00:36.982Z,3.10
2023-05-24T01:03:05.404Z,2.70
2023-05-24T01:05:34.831Z,2.77
2023-05-24T01:08:05.595Z,2.90
2023-05-24T01:10:36.061Z,2.87
2023-05-24T01:13:08.415Z,2.97
2023-05-24T01:15:42.779Z,2.63
2023-05-24T01:18:13.971Z,3.00
2023-05-24T01:20:43.420Z,2.43
2023-05-24T01:23:17.729Z,2.87
2023-05-24T01:25:54.813Z,2.57
2023-05-24T01:28:24.125Z,2.60
2023-05-24T01:30:54.437Z,2.80
2023-05-24T01:33:25.004Z,2.53
2023-05-24T01:35:52.942Z,2.60
2023-05-24T01:38:20.934Z,2.60
2023-05-24T01:40:49.047Z,2.70
2023-05-24T01:43:19.035Z,2.47
2023-05-24T01:45:53.133Z,2.50
2023-05-24T01:48:25.850Z,2.53
2023-05-24T01:50:54.492Z,2.70
2023-05-24T01:53:22.443Z,2.70
2023-05-24T01:55:50.630Z,2.50
2023-05-24T01:58:18.717Z,2.70
2023-05-24T02:00:46.751Z,2.60
2023-05-24T02:03:16.540Z,2.60
2023-05-24T02:05:44.837Z,2.30
2023-05-24T02:08:13.767Z,2.60
2023-05-24T02:10:42.067Z,2.37
2023-05-24T02:13:10.468Z,2.60
2023-05-24T02:15:38.546Z,2.43
2023-05-24T02:18:08.044Z,2.60
2023-05-24T02:20:37.853Z,2.40
2023-05-24T02:23:05.890Z,2.53
2023-05-24T02:25:33.830Z,2.60
2023-05-24T02:28:01.794Z,2.40
2023-05-24T02:30:29.756Z,2.27
2023-05-24T02:32:58.290Z,2.50
2023-05-24T02:35:26.682Z,2.47
2023-05-24T02:37:58.630Z,2.33
2023-05-24T02:40:27.161Z,2.33
2023-05-24T02:42:57.155Z,2.30
2023-05-24T02:45:25.188Z,2.53
2023-05-24T02:47:53.205Z,2.43
2023-05-24T02:50:21.173Z,2.57
2023-05-24T02:52:49.139Z,2.30
2023-05-24T02:55:18.781Z,2.40
2023-05-24T02:57:47.964Z,2.33
2023-05-24T03:00:16.577Z,2.33
2023-05-24T03:02:47.648Z,2.03
2023-05-24T03:05:18.433Z,2.50
2023-05-24T03:07:46.513Z,2.70
2023-05-24T03:10:15.976Z,2.50
2023-05-24T03:12:47.042Z,2.27
2023-05-24T03:15:15.404Z,2.03
2023-05-24T03:17:43.538Z,2.33
2023-05-24T03:20:12.413Z,2.60
2023-05-24T03:22:40.472Z,2.40
2023-05-24T03:25:09.640Z,2.20
2023-05-24T03:27:37.615Z,2.43
2023-05-24T03:30:08.737Z,2.20
2023-05-24T03:32:45.352Z,2.00
2023-05-24T03:35:13.335Z,2.30
2023-05-24T03:37:41.725Z,2.40
2023-05-24T03:40:10.345Z,2.17
2023-05-24T03:42:51.661Z,2.20
2023-05-24T03:45:34.425Z,2.10
2023-05-24T03:48:07.199Z,2.17
2023-05-24T03:50:35.657Z,1.93
2023-05-24T03:53:03.777Z,2.37
2023-05-24T03:55:31.791Z,2.20
2023-05-24T03:57:59.742Z,2.47
2023-05-24T04:00:29.192Z,2.60
2023-05-24T04:02:57.655Z,2.97
2023-05-24T04:05:27.165Z,2.50
2023-05-24T04:07:55.302Z,2.30
2023-05-24T04:10:23.812Z,2.23
2023-05-24T04:12:51.727Z,2.97
2023-05-24T04:15:19.676Z,2.90
2023-05-24T04:17:54.873Z,2.90
2023-05-24T04:20:25.391Z,2.80
2023-05-24T04:22:53.636Z,3.10
2023-05-24T04:25:21.613Z,3.50
2023-05-24T04:27:51.305Z,3.50
2023-05-24T04:30:19.527Z,3.57
2023-05-24T04:32:49.484Z,3.17
2023-05-24T04:35:18.208Z,5.57
2023-05-24T04:37:46.674Z,4.80
2023-05-24T04:40:15.982Z,5.00
2023-05-24T04:42:43.926Z,4.23
2023-05-24T04:45:12.447Z,4.73
2023-05-24T04:47:40.529Z,5.27
2023-05-24T04:50:10.871Z,4.20
2023-05-24T04:52:38.883Z,4.43
2023-05-24T04:55:07.736Z,4.63
2023-05-24T04:57:35.713Z,4.30
2023-05-24T05:00:04.693Z,6.13
2023-05-24T05:02:33.064Z,4.47
2023-05-24T05:05:01.223Z,5.50
2023-05-24T05:07:30.584Z,6.77
2023-05-24T05:09:58.511Z,6.10
2023-05-24T05:12:26.455Z,4.60
2023-05-24T05:14:54.421Z,4.87
2023-05-24T05:17:22.773Z,7.00
2023-05-24T05:19:50.840Z,4.47
2023-05-24T05:22:18.837Z,6.53
2023-05-24T05:24:48.149Z,4.43
2023-05-24T05:27:16.152Z,4.10
2023-05-24T05:29:44.076Z,4.93
2023-05-24T05:32:12.098Z,4.07
2023-05-24T05:34:40.079Z,4.27
2023-05-24T05:37:08.373Z,4.63
2023-05-24T05:39:36.441Z,4.17
2023-05-24T05:42:06.322Z,4.67
2023-05-24T05:44:34.233Z,3.70
2023-05-24T05:47:03.849Z,3.80
2023-05-24T05:49:32.755Z,3.70
2023-05-24T05:52:01.056Z,4.23
2023-05-24T05:54:29.005Z,4.03
2023-05-24T05:56:57.081Z,3.50
2023-05-24T05:59:26.891Z,4.33
2023-05-24T06:01:54.821Z,4.47
2023-05-24T06:04:22.773Z,3.60
2023-05-24T06:06:50.765Z,3.40
2023-05-24T06:09:18.698Z,4.67
2023-05-24T06:11:46.583Z,4.20
2023-05-24T06:14:19.726Z,5.27
2023-05-24T06:16:49.260Z,3.87
2023-05-24T06:19:18.235Z,3.80
2023-05-24T06:21:47.975Z,3.37
2023-05-24T06:24:20.404Z,4.10
2023-05-24T06:26:48.633Z,3.60
2023-05-24T06:29:16.624Z,4.07
2023-05-24T06:31:44.594Z,4.30
2023-05-24T06:34:16.972Z,4.40
2023-05-24T06:36:47.118Z,3.60
2023-05-24T06:39:15.117Z,3.53
2023-05-24T06:41:43.253Z,4.27
2023-05-24T06:44:11.213Z,3.47
2023-05-24T06:46:39.334Z,3.60
2023-05-24T06:49:07.392Z,3.70
2023-05-24T06:51:38.077Z,3.37
2023-05-24T06:54:06.685Z,3.60
2023-05-24T06:56:34.737Z,3.23
2023-05-24T06:59:02.706Z,3.90
2023-05-24T07:01:30.813Z,3.60
2023-05-24T07:03:59.135Z,3.27
2023-05-24T07:06:27.176Z,3.10
2023-05-24T07:08:56.475Z,3.43
2023-05-24T07:11:24.508Z,3.53
2023-05-24T07:13:52.504Z,2.80
2023-05-24T07:16:20.697Z,3.50
2023-05-24T07:18:48.737Z,2.90
2023-05-24T07:21:16.678Z,3.30
2023-05-24T07:23:44.573Z,3.37
2023-05-24T07:26:13.964Z,3.37
2023-05-24T07:28:41.909Z,3.50
2023-05-24T07:31:10.136Z,3.03
2023-05-24T07:33:38.587Z,2.90
2023-05-24T07:36:07.205Z,3.20
2023-05-24T07:38:39.022Z,3.00
2023-05-24T07:41:07.217Z,2.80
2023-05-24T07:43:37.703Z,3.00
2023-05-24T07:46:06.515Z,2.87
2023-05-24T07:48:34.558Z,3.00
2023-05-24T07:51:02.592Z,2.43
2023-05-24T07:53:30.548Z,2.37
2023-05-24T07:55:58.518Z,3.17
2023-05-24T07:58:26.478Z,2.90
2023-05-24T08:00:55.801Z,2.97
2023-05-24T08:03:25.895Z,2.60
2023-05-24T08:05:53.990Z,3.00
2023-05-24T08:08:21.911Z,3.10
2023-05-24T08:10:49.860Z,3.00
2023-05-24T08:13:17.977Z,2.90
2023-05-24T08:15:46.093Z,2.70
2023-05-24T08:18:15.498Z,2.87
2023-05-24T08:20:43.482Z,2.93
2023-05-24T08:23:11.561Z,2.63
2023-05-24T08:25:41.153Z,2.40
2023-05-24T08:28:10.718Z,3.10
2023-05-24T08:30:38.889Z,2.73
2023-05-24T08:33:06.954Z,2.50
2023-05-24T08:35:36.922Z,3.00
2023-05-24T08:38:04.835Z,2.70
2023-05-24T08:40:32.747Z,2.30
2023-05-24T08:43:01.444Z,2.73
2023-05-24T08:45:30.980Z,2.60
2023-05-24T08:47:59.360Z,2.33
2023-05-24T08:50:27.403Z,2.27
2023-05-24T08:52:56.685Z,2.17
2023-05-24T08:55:24.633Z,2.70
2023-05-24T08:57:52.682Z,2.60
2023-05-24T09:00:21.945Z,2.20
2023-05-24T09:02:50.059Z,2.50
2023-05-24T09:05:21.497Z,2.50
2023-05-24T09:07:50.235Z,2.23
2023-05-24T09:10:21.218Z,2.00
2023-05-24T09:12:51.430Z,2.37
2023-05-24T09:15:19.424Z,2.23
2023-05-24T09:17:47.491Z,2.17
2023-05-24T09:20:15.579Z,2.27
2023-05-24T09:22:44.029Z,2.10
2023-05-24T09:25:14.048Z,2.47
2023-05-24T09:27:47.416Z,2.53
2023-05-24T09:30:16.887Z,2.13
2023-05-24T09:32:56.162Z,2.17
2023-05-24T09:35:24.263Z,2.50
2023-05-24T09:37:54.484Z,2.27
2023-05-24T09:40:22.707Z,2.10
2023-05-24T09:43:03.303Z,2.20
2023-05-24T09:45:31.852Z,2.47
2023-05-24T09:47:59.897Z,2.20
2023-05-24T09:50:28.996Z,2.30
2023-05-24T09:52:56.958Z,2.23
2023-05-24T09:55:27.846Z,2.20
2023-05-24T09:58:05.067Z,2.07
2023-05-24T10:00:36.395Z,2.43
2023-05-24T10:03:06.696Z,1.93
2023-05-24T10:05:34.881Z,2.00
2023-05-24T10:08:04.984Z,1.90
2023-05-24T10:10:34.308Z,1.73
2023-05-24T10:13:03.889Z,2.10
2023-05-24T10:15:31.875Z,1.83
2023-05-24T10:18:00.468Z,2.07
2023-05-24T10:20:28.510Z,1.80
2023-05-24T10:23:00.190Z,1.83
2023-05-24T10:25:29.195Z,1.80
2023-05-24T10:27:58.409Z,1.60
2023-05-24T10:30:33.587Z,2.10
2023-05-24T10:33:02.127Z,1.80
2023-05-24T10:35:30.382Z,1.70
2023-05-24T10:37:58.384Z,2.00
2023-05-24T10:40:26.405Z,1.60
2023-05-24T10:42:57.465Z,1.73
2023-05-24T10:45:35.825Z,1.70
2023-05-24T10:48:11.299Z,2.10
2023-05-24T10:50:39.311Z,2.00
2023-05-24T10:53:13.697Z,2.10
2023-05-24T10:55:54.902Z,1.80
2023-05-24T10:58:24.390Z,1.57
2023-05-24T11:00:54.233Z,1.33
2023-05-24T11:03:24.744Z,1.77
2023-05-24T11:05:54.429Z,1.70
2023-05-24T11:08:26.499Z,1.80
2023-05-24T11:11:22.169Z,1.60
2023-05-24T11:13:50.871Z,1.77
2023-05-24T11:16:35.681Z,1.80
2023-05-24T11:19:14.419Z,1.50
2023-05-24T11:21:42.696Z,1.40
2023-05-24T11:24:10.629Z,1.57
2023-05-24T11:26:38.580Z,1.50
2023-05-24T11:29:07.375Z,1.67
2023-05-24T11:31:44.728Z,1.50
2023-05-24T11:34:12.884Z,1.90
2023-05-24T11:36:41.084Z,1.60
2023-05-24T11:39:09.539Z,1.70
2023-05-24T11:41:39.904Z,1.60
2023-05-24T11:44:08.788Z,1.67
2023-05-24T11:46:39.443Z,1.47
2023-05-24T11:49:07.772Z,1.60
2023-05-24T11:51:37.158Z,1.53
2023-05-24T11:54:05.266Z,1.50
2023-05-24T11:56:34.046Z,1.60
2023-05-24T11:59:09.578Z,1.53
2023-05-24T12:01:39.198Z,1.40
2023-05-24T12:04:08.918Z,1.67
2023-05-24T12:06:38.732Z,1.50
2023-05-24T12:09:08.982Z,1.60
2023-05-24T12:11:39.535Z,1.50
2023-05-24T12:14:07.752Z,1.30
2023-05-24T12:16:38.800Z,1.70
2023-05-24T12:19:17.009Z,1.50
2023-05-24T12:21:56.328Z,1.47
2023-05-24T12:24:24.734Z,1.50
2023-05-24T12:26:53.553Z,1.60
2023-05-24T12:29:21.497Z,1.40
2023-05-24T12:31:51.313Z,1.53
2023-05-24T12:34:20.231Z,1.40
2023-05-24T12:36:50.140Z,1.40
2023-05-24T12:39:21.548Z,1.50
2023-05-24T12:41:53.069Z,1.37
2023-05-24T12:44:25.116Z,1.50
2023-05-24T12:46:54.591Z,1.87
2023-05-24T12:49:22.799Z,1.77
2023-05-24T12:51:54.190Z,1.40
2023-05-24T12:54:24.177Z,1.40
2023-05-24T12:56:54.897Z,1.70
2023-05-24T12:59:24.159Z,1.80
2023-05-24T13:01:52.517Z,1.50
2023-05-24T13:04:24.304Z,1.47
2023-05-24T13:06:52.384Z,1.30
2023-05-24T13:09:22.962Z,1.40
2023-05-24T13:11:50.949Z,1.43
2023-05-24T13:14:19.702Z,1.70
2023-05-24T13:16:47.991Z,1.47
2023-05-24T13:19:16.540Z,1.33
2023-05-24T13:21:45.997Z,1.50
2023-05-24T13:24:16.550Z,1.40
2023-05-24T13:26:44.820Z,1.60
2023-05-24T13:31:46.275Z,1.57
2023-05-24T13:34:14.373Z,1.80
2023-05-24T13:36:42.908Z,1.60
2023-05-24T13:39:16.131Z,1.30
2023-05-24T13:41:45.152Z,1.63
2023-05-24T13:44:13.356Z,1.50
2023-05-24T13:46:41.574Z,1.50
2023-05-24T13:49:11.348Z,1.40
2023-05-24T13:51:39.454Z,1.50
2023-05-24T13:54:07.986Z,1.40
2023-05-24T13:56:38.625Z,1.63
2023-05-24T13:59:07.032Z,1.50
2023-05-24T14:01:35.846Z,1.57
2023-05-24T14:04:04.165Z,1.50
2023-05-24T14:06:34.865Z,1.73
2023-05-24T14:09:02.822Z,1.57
2023-05-24T14:11:31.759Z,1.40
2023-05-24T14:16:33.000Z,1.40
2023-05-24T14:19:01.097Z,1.33
2023-05-24T14:21:29.096Z,1.40
2023-05-24T14:23:57.043Z,1.53
2023-05-24T14:26:25.011Z,1.20
2023-05-24T14:28:56.089Z,1.60
2023-05-24T14:31:26.295Z,1.60
2023-05-24T14:33:54.315Z,1.37
2023-05-24T14:36:22.338Z,1.53
2023-05-24T14:38:50.357Z,2.20
2023-05-24T14:41:18.344Z,1.60
2023-05-24T14:43:46.343Z,1.23
2023-05-24T14:46:14.664Z,1.60
2023-05-24T14:48:44.065Z,1.60
2023-05-24T14:51:14.568Z,1.50
2023-05-24T14:53:42.499Z,1.60
2023-05-24T14:56:10.472Z,1.53
2023-05-24T14:58:38.434Z,1.47
2023-05-24T15:01:08.076Z,1.50
2023-05-24T15:03:36.402Z,1.60
2023-05-24T15:06:06.309Z,1.20
2023-05-24T15:08:35.180Z,1.60
2023-05-24T15:11:03.150Z,1.27
2023-05-24T15:13:31.121Z,1.40
2023-05-24T15:16:00.462Z,1.40
2023-05-24T15:18:28.981Z,1.43
2023-05-24T15:20:57.204Z,1.50
2023-05-24T15:23:26.839Z,1.47
2023-05-24T15:25:54.812Z,1.40
2023-05-24T15:28:24.762Z,1.40
2023-05-24T15:30:54.383Z,1.40
2023-05-24T15:33:26.528Z,1.50
2023-05-24T15:35:54.902Z,1.73
2023-05-24T15:38:22.873Z,1.50
2023-05-24T15:40:52.305Z,1.60
2023-05-24T15:43:20.581Z,1.50
2023-05-24T15:45:48.553Z,1.43
2023-05-24T15:48:16.524Z,1.63
2023-05-24T15:51:09.259Z,1.60
2023-05-24T15:53:32.712Z,1.57
2023-05-24T15:56:02.067Z,1.67
2023-05-24T15:58:30.027Z,1.77
2023-05-24T16:00:57.978Z,1.60
2023-05-24T16:03:26.117Z,1.63
2023-05-24T16:05:54.189Z,1.67
2023-05-24T16:08:27.446Z,1.43
2023-05-24T16:10:55.515Z,1.40
2023-05-24T16:13:24.805Z,1.40
2023-05-24T16:15:52.816Z,1.50
2023-05-24T16:18:22.516Z,1.73
2023-05-24T16:20:51.014Z,1.60
2023-05-24T16:23:19.276Z,1.70
2023-05-24T16:25:47.214Z,1.63
2023-05-24T16:28:15.169Z,1.53
2023-05-24T16:30:45.856Z,1.50
2023-05-24T16:33:13.829Z,1.70
2023-05-24T16:35:41.753Z,1.57
2023-05-24T16:38:09.690Z,1.63
2023-05-24T16:40:37.637Z,1.80
2023-05-24T16:43:05.585Z,1.93
2023-05-24T16:45:33.541Z,1.77
2023-05-24T16:48:03.541Z,2.00
2023-05-24T16:50:31.542Z,1.70
2023-05-24T16:52:59.506Z,1.70
2023-05-24T16:55:27.493Z,1.70
2023-05-24T16:57:55.640Z,1.93
2023-05-24T17:00:26.610Z,1.60
2023-05-24T17:02:54.771Z,1.67
2023-05-24T17:05:26.931Z,2.13
2023-05-24T17:07:55.851Z,2.10
2023-05-24T17:10:23.843Z,2.10
2023-05-24T17:12:51.803Z,2.23
2023-05-24T17:15:19.806Z,2.30
2023-05-24T17:17:47.760Z,2.13
2023-05-24T17:20:16.142Z,2.27
2023-05-24T17:22:45.616Z,2.20
2023-05-24T17:25:13.575Z,2.20
2023-05-24T17:27:41.519Z,2.37
2023-05-24T17:30:12.275Z,1.80
2023-05-24T17:32:40.280Z,2.10
2023-05-24T17:35:09.081Z,2.50
2023-05-24T17:37:37.287Z,2.10
2023-05-24T17:40:07.980Z,2.07
2023-05-24T17:42:35.907Z,1.77
2023-05-24T17:45:04.610Z,2.00
2023-05-24T17:47:35.579Z,1.87
2023-05-24T17:50:03.578Z,2.10
2023-05-24T17:52:31.758Z,2.57
2023-05-24T17:54:59.708Z,2.00
2023-05-24T17:57:29.071Z,2.17
2023-05-24T17:59:57.085Z,2.00
2023-05-24T18:02:25.048Z,1.80
2023-05-24T18:04:55.342Z,2.10
2023-05-24T18:07:24.086Z,2.23
2023-05-24T18:09:52.190Z,2.00
2023-05-24T18:12:20.399Z,1.93
2023-05-24T18:14:49.726Z,1.80
2023-05-24T18:17:17.810Z,1.97
2023-05-24T18:19:46.201Z,1.73
2023-05-24T18:22:14.206Z,2.00
2023-05-24T18:24:42.155Z,1.93
2023-05-24T18:27:10.141Z,2.10
2023-05-24T18:29:38.528Z,1.67
2023-05-24T18:32:07.964Z,2.00
2023-05-24T18:34:36.009Z,1.80
2023-05-24T18:37:04.115Z,1.97
2023-05-24T18:39:32.048Z,1.87
2023-05-24T18:41:59.968Z,1.60
2023-05-24T18:44:27.918Z,1.77
2023-05-24T18:46:57.919Z,2.00
2023-05-24T18:49:27.450Z,2.07
2023-05-24T18:51:55.384Z,1.93
2023-05-24T18:54:24.557Z,1.97
2023-05-24T18:56:52.483Z,1.80
2023-05-24T18:59:21.630Z,1.80
2023-05-24T19:01:49.861Z,2.10
2023-05-24T19:04:17.802Z,2.00
2023-05-24T19:06:47.165Z,2.00
2023-05-24T19:09:15.799Z,1.93
2023-05-24T19:11:47.432Z,2.00
2023-05-24T19:14:17.688Z,1.87
2023-05-24T19:16:45.703Z,1.93
2023-05-24T19:19:13.705Z,1.73
2023-05-24T19:21:42.443Z,1.70
2023-05-24T19:24:11.763Z,1.63
2023-05-24T19:26:39.764Z,1.90
2023-05-24T19:29:07.745Z,1.73
2023-05-24T19:31:36.206Z,1.80
2023-05-24T19:34:04.145Z,1.93
2023-05-24T19:36:33.462Z,1.70
2023-05-24T19:39:01.408Z,1.83
2023-05-24T19:41:30.998Z,1.73
2023-05-24T19:43:59.187Z,2.17
2023-05-24T19:46:27.242Z,1.57
2023-05-24T19:48:55.245Z,1.70
2023-05-24T19:51:23.193Z,1.90
2023-05-24T19:53:51.145Z,1.70
2023-05-24T19:56:20.604Z,1.97
2023-05-24T19:58:50.066Z,1.70
2023-05-24T20:01:18.078Z,2.03
2023-05-24T20:03:48.507Z,1.80
2023-05-24T20:06:21.390Z,1.63
2023-05-24T20:08:49.353Z,1.60
2023-05-24T20:11:17.666Z,1.80
2023-05-24T20:13:45.665Z,1.80
2023-05-24T20:16:14.975Z,1.50
2023-05-24T20:18:42.908Z,1.60
2023-05-24T20:21:11.159Z,1.70
2023-05-24T20:23:39.120Z,1.60
2023-05-24T20:26:07.113Z,1.70
2023-05-24T20:28:35.024Z,1.80
2023-05-24T20:31:05.781Z,1.37
2023-05-24T20:33:38.296Z,1.80
2023-05-24T20:36:09.783Z,1.80
2023-05-24T20:38:39.477Z,1.70
2023-05-24T20:41:07.489Z,1.60
2023-05-24T20:43:35.480Z,1.50
2023-05-24T20:46:03.548Z,1.67
2023-05-24T20:48:35.826Z,1.70
2023-05-24T20:51:03.774Z,1.67
2023-05-24T20:53:31.796Z,1.70
2023-05-24T20:56:01.726Z,1.83
2023-05-24T20:58:30.781Z,1.60
2023-05-24T21:00:59.187Z,1.60
2023-05-24T21:03:27.363Z,1.60
2023-05-24T21:05:56.719Z,1.50
2023-05-24T21:08:24.648Z,1.40
2023-05-24T21:10:55.524Z,1.40
2023-05-24T21:13:25.333Z,1.63
2023-05-24T21:15:53.376Z,1.50
2023-05-24T21:18:21.350Z,1.60
2023-05-24T21:20:49.546Z,1.70
2023-05-24T21:23:18.903Z,1.40
2023-05-24T21:25:46.849Z,1.80
2023-05-24T21:28:15.048Z,1.40
2023-05-24T21:30:45.786Z,1.60
2023-05-24T21:33:13.881Z,1.77
2023-05-24T21:35:42.101Z,1.60
2023-05-24T21:38:10.138Z,1.50
2023-05-24T21:40:39.478Z,1.60
2023-05-24T21:43:12.016Z,1.60
2023-05-24T21:45:40.027Z,1.60
2023-05-24T21:48:08.291Z,1.53
2023-05-24T21:50:37.534Z,1.30
2023-05-24T21:53:05.502Z,1.30
2023-05-24T21:55:33.450Z,1.40
2023-05-24T21:58:02.765Z,1.63
2023-05-24T22:00:34.240Z,1.53
2023-05-24T22:03:02.235Z,1.33
2023-05-24T22:05:30.283Z,1.50
2023-05-24T22:07:58.283Z,1.60
2023-05-24T22:10:26.596Z,1.50
2023-05-24T22:12:54.518Z,1.80
2023-05-24T22:15:26.483Z,1.60
2023-05-24T22:17:58.573Z,1.50
2023-05-24T22:20:27.536Z,1.60
2023-05-24T22:22:55.602Z,1.60
2023-05-24T22:25:23.554Z,1.40
2023-05-24T22:27:51.646Z,1.50
2023-05-24T22:30:19.643Z,1.40
2023-05-24T22:32:49.072Z,1.30
2023-05-24T22:35:17.248Z,1.80
2023-05-24T22:37:46.528Z,1.30
2023-05-24T22:40:18.038Z,1.40
2023-05-24T22:42:46.060Z,1.60
2023-05-24T22:45:14.365Z,1.33
2023-05-24T22:47:42.362Z,1.30
2023-05-24T22:50:11.902Z,1.70
2023-05-24T22:52:42.769Z,1.30
2023-05-24T22:55:11.275Z,1.40
2023-05-24T22:57:39.243Z,1.50
2023-05-24T23:00:08.806Z,1.47
2023-05-24T23:02:38.570Z,1.40
2023-05-24T23:05:07.387Z,1.33
2023-05-24T23:07:39.867Z,1.53
2023-05-24T23:10:09.326Z,1.40
2023-05-24T23:12:42.321Z,1.70
2023-05-24T23:15:16.687Z,1.50
2023-05-24T23:17:48.131Z,1.47
2023-05-24T23:20:16.164Z,1.80
2023-05-24T23:22:46.859Z,1.27
2023-05-24T23:25:14.803Z,1.60
2023-05-24T23:27:42.740Z,1.40
2023-05-24T23:30:11.168Z,1.77
2023-05-24T23:32:40.896Z,1.47
2023-05-24T23:35:09.653Z,1.43
2023-05-24T23:37:37.610Z,1.50
2023-05-24T23:40:08.541Z,1.80
2023-05-24T23:42:36.951Z,1.50
2023-05-24T23:45:05.818Z,1.43
2023-05-24T23:47:33.784Z,1.50
2023-05-24T23:50:01.689Z,1.43
2023-05-24T23:52:29.619Z,1.50
2023-05-24T23:54:57.574Z,1.50
2023-05-24T23:57:27.112Z,1.67
2023-05-24T23:59:59.676Z,1.70
